CDC8987 ZSHC-ZGGG
Flight info
| Callsign | CDC8987 |
|---|---|
| Flight time | 1h 38m |
| Altitude | 32100 |
| Route | ELNEX5E ELNEX A599 PLT W19 OLPAB OLPAB8 |
| Aircraft | A21N/M-SDE3FGHIRWY/LB1 |
Departure
| Time | 2026-05-06 09:48 |
|---|---|
| Airport | Hangzhou Xiaoshan International Airport (ZSHC) |
Arrival
| Time | 2026-05-06 11:26 |
|---|---|
| Airport | Guangzhou Baiyun International Airport (ZGGG) |
| Time | Latitude | Longitude | Altitude | Speed | Heading |
|---|---|---|---|---|---|
| 2026-05-06 09:08 | 30.24206 | 120.42958 | 29 ft | 0 kts | 63° |
| 2026-05-06 09:24 | 30.24205 | 120.42956 | 29 ft | 1 kts | 63° |
| 2026-05-06 09:24 | 30.24199 | 120.42942 | 29 ft | 2 kts | 63° |
| 2026-05-06 09:24 | 30.24195 | 120.42932 | 29 ft | 2 kts | 63° |
| 2026-05-06 09:24 | 30.24185 | 120.42919 | 29 ft | 2 kts | 30° |
| 2026-05-06 09:25 | 30.24171 | 120.42913 | 29 ft | 2 kts | 4° |
| 2026-05-06 09:25 | 30.24156 | 120.42915 | 29 ft | 1 kts | 338° |
| 2026-05-06 09:25 | 30.24151 | 120.42918 | 29 ft | 1 kts | 329° |
| 2026-05-06 09:25 | 30.24148 | 120.42920 | 29 ft | 0 kts | 332° |
| 2026-05-06 09:28 | 30.24153 | 120.42917 | 29 ft | 3 kts | 332° |
| 2026-05-06 09:28 | 30.24179 | 120.42902 | 29 ft | 4 kts | 333° |
| 2026-05-06 09:28 | 30.24248 | 120.42862 | 29 ft | 14 kts | 333° |
| 2026-05-06 09:28 | 30.24331 | 120.42862 | 29 ft | 12 kts | 48° |
| 2026-05-06 09:29 | 30.24376 | 120.42951 | 29 ft | 13 kts | 63° |
| 2026-05-06 09:29 | 30.24417 | 120.43045 | 29 ft | 13 kts | 64° |
| 2026-05-06 09:29 | 30.24460 | 120.43141 | 29 ft | 13 kts | 62° |
| 2026-05-06 09:29 | 30.24503 | 120.43237 | 29 ft | 13 kts | 63° |
| 2026-05-06 09:30 | 30.24546 | 120.43336 | 29 ft | 13 kts | 63° |
| 2026-05-06 09:30 | 30.24554 | 120.43433 | 29 ft | 13 kts | 137° |
| 2026-05-06 09:30 | 30.24473 | 120.43486 | 29 ft | 13 kts | 153° |
| 2026-05-06 09:30 | 30.24389 | 120.43536 | 29 ft | 13 kts | 153° |
| 2026-05-06 09:31 | 30.24303 | 120.43586 | 29 ft | 13 kts | 153° |
| 2026-05-06 09:31 | 30.24217 | 120.43636 | 29 ft | 14 kts | 152° |
| 2026-05-06 09:31 | 30.24130 | 120.43688 | 29 ft | 14 kts | 152° |
| 2026-05-06 09:31 | 30.24041 | 120.43740 | 29 ft | 14 kts | 153° |
| 2026-05-06 09:32 | 30.23952 | 120.43792 | 29 ft | 14 kts | 152° |
| 2026-05-06 09:32 | 30.23863 | 120.43845 | 29 ft | 14 kts | 153° |
| 2026-05-06 09:32 | 30.23772 | 120.43898 | 29 ft | 14 kts | 152° |
| 2026-05-06 09:32 | 30.23682 | 120.43951 | 29 ft | 14 kts | 153° |
| 2026-05-06 09:33 | 30.23590 | 120.43999 | 29 ft | 14 kts | 177° |
| 2026-05-06 09:33 | 30.23528 | 120.43922 | 29 ft | 14 kts | 244° |
| 2026-05-06 09:33 | 30.23482 | 120.43819 | 29 ft | 14 kts | 242° |
| 2026-05-06 09:33 | 30.23436 | 120.43712 | 29 ft | 15 kts | 243° |
| 2026-05-06 09:34 | 30.23388 | 120.43604 | 29 ft | 15 kts | 243° |
| 2026-05-06 09:34 | 30.23338 | 120.43492 | 29 ft | 15 kts | 243° |
| 2026-05-06 09:34 | 30.23271 | 120.43448 | 29 ft | 9 kts | 171° |
| 2026-05-06 09:34 | 30.23220 | 120.43411 | 29 ft | 7 kts | 244° |
| 2026-05-06 09:35 | 30.23186 | 120.43333 | 29 ft | 21 kts | 243° |
| 2026-05-06 09:35 | 30.23106 | 120.43154 | 29 ft | 24 kts | 242° |
| 2026-05-06 09:35 | 30.23037 | 120.42998 | 29 ft | 21 kts | 243° |
| 2026-05-06 09:35 | 30.22965 | 120.42939 | 29 ft | 10 kts | 153° |
| 2026-05-06 09:36 | 30.22906 | 120.42909 | 29 ft | 10 kts | 237° |
| 2026-05-06 09:36 | 30.22873 | 120.42833 | 29 ft | 11 kts | 243° |
| 2026-05-06 09:36 | 30.22836 | 120.42750 | 29 ft | 12 kts | 243° |
| 2026-05-06 09:36 | 30.22808 | 120.42685 | 28 ft | 12 kts | 243° |
| 2026-05-06 09:37 | 30.22769 | 120.42597 | 28 ft | 13 kts | 243° |
| 2026-05-06 09:37 | 30.22726 | 120.42501 | 29 ft | 13 kts | 243° |
| 2026-05-06 09:37 | 30.22681 | 120.42400 | 29 ft | 14 kts | 242° |
| 2026-05-06 09:37 | 30.22660 | 120.42353 | 29 ft | 14 kts | 242° |
| 2026-05-06 09:38 | 30.22648 | 120.42326 | 29 ft | 14 kts | 242° |
| 2026-05-06 09:38 | 30.22600 | 120.42220 | 29 ft | 14 kts | 242° |
| 2026-05-06 09:38 | 30.22551 | 120.42114 | 29 ft | 15 kts | 242° |
| 2026-05-06 09:39 | 30.22501 | 120.42004 | 29 ft | 15 kts | 242° |
| 2026-05-06 09:39 | 30.22452 | 120.41891 | 29 ft | 15 kts | 246° |
| 2026-05-06 09:39 | 30.22419 | 120.41805 | 29 ft | 0 kts | 242° |
| 2026-05-06 09:41 | 30.22408 | 120.41782 | 29 ft | 7 kts | 242° |
| 2026-05-06 09:41 | 30.22378 | 120.41727 | 29 ft | 3 kts | 217° |
| 2026-05-06 09:41 | 30.22376 | 120.41725 | 29 ft | 0 kts | 216° |
| 2026-05-06 09:42 | 30.22375 | 120.41724 | 29 ft | 1 kts | 214° |
| 2026-05-06 09:42 | 30.22344 | 120.41714 | 29 ft | 4 kts | 173° |
| 2026-05-06 09:42 | 30.22327 | 120.41724 | 29 ft | 2 kts | 138° |
| 2026-05-06 09:43 | 30.22313 | 120.41737 | 29 ft | 2 kts | 142° |
| 2026-05-06 09:43 | 30.22310 | 120.41740 | 29 ft | 0 kts | 146° |
| 2026-05-06 09:44 | 30.22296 | 120.41745 | 29 ft | 3 kts | 160° |
| 2026-05-06 09:45 | 30.22280 | 120.41752 | 29 ft | 5 kts | 160° |
| 2026-05-06 09:45 | 30.22237 | 120.41774 | 29 ft | 6 kts | 152° |
| 2026-05-06 09:45 | 30.22221 | 120.41794 | 29 ft | 0 kts | 68° |
| 2026-05-06 09:45 | 30.22222 | 120.41795 | 29 ft | 0 kts | 63° |
| 2026-05-06 09:48 | 30.22250 | 120.41859 | 29 ft | 34 kts | 63° |
| 2026-05-06 09:48 | 30.22485 | 120.42390 | 29 ft | 110 kts | 63° |
| 2026-05-06 09:48 | 30.22929 | 120.43391 | 54 ft | 166 kts | 64° |
| 2026-05-06 09:48 | 30.23467 | 120.44598 | 654 ft | 171 kts | 65° |
| 2026-05-06 09:49 | 30.23954 | 120.45835 | 1371 ft | 173 kts | 78° |
| 2026-05-06 09:49 | 30.23984 | 120.47196 | 2034 ft | 177 kts | 98° |
| 2026-05-06 09:49 | 30.23815 | 120.48666 | 2568 ft | 192 kts | 100° |
| 2026-05-06 09:49 | 30.23623 | 120.50259 | 3094 ft | 210 kts | 99° |
| 2026-05-06 09:50 | 30.23425 | 120.51986 | 3607 ft | 228 kts | 99° |
| 2026-05-06 09:50 | 30.23214 | 120.53899 | 4075 ft | 252 kts | 98° |
| 2026-05-06 09:50 | 30.22933 | 120.55956 | 4671 ft | 269 kts | 108° |
| 2026-05-06 09:50 | 30.21949 | 120.57786 | 5452 ft | 275 kts | 139° |
| 2026-05-06 09:51 | 30.20349 | 120.58934 | 6384 ft | 276 kts | 154° |
| 2026-05-06 09:51 | 30.18596 | 120.59916 | 7242 ft | 281 kts | 157° |
| 2026-05-06 09:51 | 30.16707 | 120.60405 | 7999 ft | 285 kts | 183° |
| 2026-05-06 09:51 | 30.14813 | 120.59834 | 8790 ft | 286 kts | 209° |
| 2026-05-06 09:52 | 30.13311 | 120.58357 | 9380 ft | 289 kts | 234° |
| 2026-05-06 09:52 | 30.12336 | 120.56306 | 9759 ft | 290 kts | 244° |
| 2026-05-06 09:52 | 30.11452 | 120.54232 | 9812 ft | 290 kts | 244° |
| 2026-05-06 09:52 | 30.10552 | 120.52145 | 9835 ft | 290 kts | 244° |
| 2026-05-06 09:53 | 30.09649 | 120.50076 | 9834 ft | 289 kts | 243° |
| 2026-05-06 09:53 | 30.08738 | 120.48006 | 9834 ft | 290 kts | 243° |
| 2026-05-06 09:53 | 30.07816 | 120.45924 | 9831 ft | 289 kts | 243° |
| 2026-05-06 09:53 | 30.06903 | 120.43866 | 9825 ft | 288 kts | 243° |
| 2026-05-06 09:54 | 30.05999 | 120.41833 | 9837 ft | 287 kts | 243° |
| 2026-05-06 09:54 | 30.05084 | 120.39779 | 9831 ft | 288 kts | 243° |
| 2026-05-06 09:54 | 30.04158 | 120.37701 | 9848 ft | 288 kts | 243° |
| 2026-05-06 09:54 | 30.03235 | 120.35636 | 9990 ft | 294 kts | 243° |
| 2026-05-06 09:55 | 30.02292 | 120.33524 | 10507 ft | 304 kts | 243° |
| 2026-05-06 09:55 | 30.01304 | 120.31316 | 10886 ft | 321 kts | 243° |
| 2026-05-06 09:55 | 30.00251 | 120.28961 | 11216 ft | 339 kts | 243° |
| 2026-05-06 09:55 | 29.99119 | 120.26453 | 11524 ft | 357 kts | 242° |
| 2026-05-06 09:56 | 29.97913 | 120.23889 | 11810 ft | 374 kts | 242° |
| 2026-05-06 09:56 | 29.96645 | 120.21221 | 12080 ft | 389 kts | 242° |
| 2026-05-06 09:56 | 29.95314 | 120.18415 | 12354 ft | 404 kts | 242° |
| 2026-05-06 09:56 | 29.93955 | 120.15551 | 12839 ft | 410 kts | 242° |
| 2026-05-06 09:57 | 29.92598 | 120.12691 | 13438 ft | 413 kts | 242° |
| 2026-05-06 09:57 | 29.91213 | 120.09775 | 14064 ft | 414 kts | 242° |
| 2026-05-06 09:57 | 29.89822 | 120.06845 | 14650 ft | 416 kts | 242° |
| 2026-05-06 09:57 | 29.88442 | 120.03941 | 15191 ft | 419 kts | 242° |
| 2026-05-06 09:58 | 29.87029 | 120.00974 | 15715 ft | 422 kts | 242° |
| 2026-05-06 09:58 | 29.85529 | 119.98074 | 16238 ft | 425 kts | 239° |
| 2026-05-06 09:58 | 29.83870 | 119.95248 | 16770 ft | 427 kts | 236° |
| 2026-05-06 09:58 | 29.82064 | 119.92522 | 17270 ft | 429 kts | 233° |
| 2026-05-06 09:59 | 29.80212 | 119.89874 | 17765 ft | 431 kts | 233° |
| 2026-05-06 09:59 | 29.78318 | 119.87178 | 18233 ft | 434 kts | 233° |
| 2026-05-06 09:59 | 29.76418 | 119.84478 | 18684 ft | 436 kts | 233° |
| 2026-05-06 09:59 | 29.74498 | 119.81749 | 19134 ft | 439 kts | 233° |
| 2026-05-06 10:00 | 29.72572 | 119.79013 | 19562 ft | 441 kts | 233° |
| 2026-05-06 10:00 | 29.70656 | 119.76292 | 20005 ft | 443 kts | 233° |
| 2026-05-06 10:00 | 29.68701 | 119.73517 | 20430 ft | 446 kts | 233° |
| 2026-05-06 10:00 | 29.66750 | 119.70750 | 20843 ft | 448 kts | 233° |
| 2026-05-06 10:01 | 29.64901 | 119.67904 | 21199 ft | 449 kts | 240° |
| 2026-05-06 10:01 | 29.63603 | 119.64651 | 21590 ft | 448 kts | 252° |
| 2026-05-06 10:01 | 29.62957 | 119.61131 | 21973 ft | 449 kts | 264° |
| 2026-05-06 10:01 | 29.62919 | 119.57569 | 22371 ft | 450 kts | 271° |
| 2026-05-06 10:02 | 29.62976 | 119.53979 | 22736 ft | 453 kts | 268° |
| 2026-05-06 10:02 | 29.62462 | 119.50423 | 23049 ft | 456 kts | 255° |
| 2026-05-06 10:02 | 29.61202 | 119.47058 | 23428 ft | 460 kts | 242° |
| 2026-05-06 10:02 | 29.59301 | 119.44107 | 23940 ft | 461 kts | 231° |
| 2026-05-06 10:03 | 29.57185 | 119.41398 | 24550 ft | 458 kts | 231° |
| 2026-05-06 10:03 | 29.55044 | 119.38674 | 25080 ft | 456 kts | 231° |
| 2026-05-06 10:03 | 29.52933 | 119.35989 | 25597 ft | 454 kts | 231° |
| 2026-05-06 10:03 | 29.50835 | 119.33323 | 26100 ft | 453 kts | 231° |
| 2026-05-06 10:04 | 29.48725 | 119.30640 | 26623 ft | 451 kts | 231° |
| 2026-05-06 10:04 | 29.46639 | 119.27987 | 27164 ft | 448 kts | 231° |
| 2026-05-06 10:04 | 29.44568 | 119.25353 | 27665 ft | 447 kts | 231° |
| 2026-05-06 10:04 | 29.42471 | 119.22689 | 28189 ft | 445 kts | 231° |
| 2026-05-06 10:05 | 29.40418 | 119.20084 | 28697 ft | 443 kts | 231° |
| 2026-05-06 10:05 | 29.38371 | 119.17484 | 29175 ft | 442 kts | 231° |
| 2026-05-06 10:05 | 29.36298 | 119.14857 | 29643 ft | 440 kts | 232° |
| 2026-05-06 10:05 | 29.34259 | 119.12274 | 30060 ft | 440 kts | 231° |
| 2026-05-06 10:06 | 29.32211 | 119.09686 | 30415 ft | 440 kts | 231° |
| 2026-05-06 10:06 | 29.30156 | 119.07092 | 30737 ft | 442 kts | 232° |
| 2026-05-06 10:06 | 29.28094 | 119.04489 | 31022 ft | 443 kts | 232° |
| 2026-05-06 10:06 | 29.26016 | 119.01868 | 31292 ft | 445 kts | 232° |
| 2026-05-06 10:07 | 29.23937 | 118.99248 | 31543 ft | 447 kts | 232° |
| 2026-05-06 10:07 | 29.21840 | 118.96602 | 31782 ft | 449 kts | 232° |
| 2026-05-06 10:07 | 29.19752 | 118.93967 | 32002 ft | 450 kts | 232° |
| 2026-05-06 10:07 | 29.17638 | 118.91300 | 32031 ft | 452 kts | 232° |
| 2026-05-06 10:08 | 29.13411 | 118.85974 | 32045 ft | 452 kts | 232° |
| 2026-05-06 10:08 | 29.09211 | 118.80696 | 32041 ft | 451 kts | 232° |
| 2026-05-06 10:09 | 29.04988 | 118.75404 | 32038 ft | 451 kts | 232° |
| 2026-05-06 10:09 | 29.00764 | 118.70116 | 32026 ft | 450 kts | 232° |
| 2026-05-06 10:10 | 28.96544 | 118.64834 | 32021 ft | 451 kts | 232° |
| 2026-05-06 10:10 | 28.92298 | 118.59528 | 32027 ft | 452 kts | 232° |
| 2026-05-06 10:11 | 28.88069 | 118.54250 | 32028 ft | 452 kts | 232° |
| 2026-05-06 10:11 | 28.84534 | 118.49841 | 32031 ft | 452 kts | 232° |
| 2026-05-06 10:12 | 28.80642 | 118.44996 | 32033 ft | 451 kts | 231° |
| 2026-05-06 10:12 | 28.76423 | 118.39750 | 32031 ft | 451 kts | 232° |
| 2026-05-06 10:13 | 28.72185 | 118.34488 | 32027 ft | 452 kts | 231° |
| 2026-05-06 10:13 | 28.67952 | 118.29237 | 32027 ft | 451 kts | 231° |
| 2026-05-06 10:14 | 28.63693 | 118.23960 | 32024 ft | 452 kts | 231° |
| 2026-05-06 10:14 | 28.59456 | 118.18716 | 32037 ft | 453 kts | 231° |
| 2026-05-06 10:15 | 28.55188 | 118.13443 | 32045 ft | 452 kts | 231° |
| 2026-05-06 10:15 | 28.50918 | 118.08174 | 32039 ft | 452 kts | 231° |
| 2026-05-06 10:16 | 28.46672 | 118.02938 | 32035 ft | 452 kts | 231° |
| 2026-05-06 10:16 | 28.42419 | 117.97704 | 32032 ft | 452 kts | 231° |
| 2026-05-06 10:17 | 28.38076 | 117.92519 | 32030 ft | 453 kts | 229° |
| 2026-05-06 10:17 | 28.33711 | 117.87421 | 32034 ft | 454 kts | 229° |
| 2026-05-06 10:18 | 28.29324 | 117.82289 | 32031 ft | 454 kts | 230° |
| 2026-05-06 10:18 | 28.24918 | 117.77129 | 32024 ft | 453 kts | 229° |
| 2026-05-06 10:19 | 28.20554 | 117.72024 | 32027 ft | 453 kts | 230° |
| 2026-05-06 10:19 | 28.16183 | 117.66915 | 32033 ft | 453 kts | 229° |
| 2026-05-06 10:20 | 28.11804 | 117.61800 | 32044 ft | 453 kts | 229° |
| 2026-05-06 10:20 | 28.07398 | 117.56664 | 32050 ft | 454 kts | 229° |
| 2026-05-06 10:21 | 28.03019 | 117.51553 | 32050 ft | 453 kts | 230° |
| 2026-05-06 10:21 | 27.98657 | 117.46446 | 32048 ft | 452 kts | 230° |
| 2026-05-06 10:22 | 27.94300 | 117.41351 | 32065 ft | 450 kts | 230° |
| 2026-05-06 10:22 | 27.89970 | 117.36301 | 32070 ft | 450 kts | 230° |
| 2026-05-06 10:23 | 27.85592 | 117.31198 | 32076 ft | 451 kts | 229° |
| 2026-05-06 10:23 | 27.81224 | 117.26111 | 32085 ft | 451 kts | 229° |
| 2026-05-06 10:24 | 27.76878 | 117.21056 | 32082 ft | 450 kts | 229° |
| 2026-05-06 10:24 | 27.72506 | 117.15977 | 32067 ft | 450 kts | 230° |
| 2026-05-06 10:25 | 27.68148 | 117.10921 | 32058 ft | 450 kts | 230° |
| 2026-05-06 10:25 | 27.63805 | 117.05886 | 32060 ft | 450 kts | 229° |
| 2026-05-06 10:26 | 27.59409 | 117.00796 | 32066 ft | 451 kts | 229° |
| 2026-05-06 10:26 | 27.55067 | 116.95774 | 32069 ft | 450 kts | 229° |
| 2026-05-06 10:27 | 27.50677 | 116.90700 | 32068 ft | 450 kts | 230° |
| 2026-05-06 10:27 | 27.46353 | 116.85642 | 32059 ft | 450 kts | 230° |
| 2026-05-06 10:28 | 27.42019 | 116.80571 | 32047 ft | 450 kts | 230° |
| 2026-05-06 10:28 | 27.37682 | 116.75509 | 32039 ft | 450 kts | 230° |
| 2026-05-06 10:29 | 27.33329 | 116.70432 | 32038 ft | 450 kts | 230° |
| 2026-05-06 10:29 | 27.28987 | 116.65376 | 32041 ft | 449 kts | 230° |
| 2026-05-06 10:30 | 27.24659 | 116.60340 | 32036 ft | 449 kts | 230° |
| 2026-05-06 10:30 | 27.20340 | 116.55314 | 32029 ft | 449 kts | 230° |
| 2026-05-06 10:31 | 27.16086 | 116.50170 | 32027 ft | 449 kts | 231° |
| 2026-05-06 10:31 | 27.11853 | 116.45019 | 32035 ft | 449 kts | 231° |
| 2026-05-06 10:32 | 27.07623 | 116.39889 | 32044 ft | 449 kts | 231° |
| 2026-05-06 10:32 | 27.03394 | 116.34772 | 32050 ft | 449 kts | 231° |
| 2026-05-06 10:33 | 26.99154 | 116.29649 | 32054 ft | 449 kts | 231° |
| 2026-05-06 10:33 | 26.94894 | 116.24509 | 32050 ft | 448 kts | 231° |
| 2026-05-06 10:34 | 26.90650 | 116.19396 | 32048 ft | 448 kts | 230° |
| 2026-05-06 10:34 | 26.86388 | 116.14269 | 32049 ft | 448 kts | 230° |
| 2026-05-06 10:35 | 26.82169 | 116.09197 | 32047 ft | 448 kts | 230° |
| 2026-05-06 10:35 | 26.77917 | 116.04089 | 32041 ft | 448 kts | 231° |
| 2026-05-06 10:36 | 26.73646 | 115.98964 | 32038 ft | 449 kts | 230° |
| 2026-05-06 10:36 | 26.69412 | 115.93868 | 32038 ft | 449 kts | 231° |
| 2026-05-06 10:37 | 26.65164 | 115.88723 | 32042 ft | 449 kts | 231° |
| 2026-05-06 10:37 | 26.60937 | 115.83605 | 32050 ft | 449 kts | 231° |
| 2026-05-06 10:38 | 26.56715 | 115.78503 | 32053 ft | 449 kts | 231° |
| 2026-05-06 10:38 | 26.52461 | 115.73371 | 32051 ft | 449 kts | 231° |
| 2026-05-06 10:39 | 26.48228 | 115.68268 | 32041 ft | 449 kts | 231° |
| 2026-05-06 10:39 | 26.43980 | 115.63152 | 32045 ft | 450 kts | 231° |
| 2026-05-06 10:40 | 26.39730 | 115.58041 | 32045 ft | 450 kts | 231° |
| 2026-05-06 10:40 | 26.35475 | 115.52929 | 32052 ft | 449 kts | 231° |
| 2026-05-06 10:41 | 26.31246 | 115.47853 | 32057 ft | 449 kts | 231° |
| 2026-05-06 10:41 | 26.26988 | 115.42748 | 32052 ft | 450 kts | 231° |
| 2026-05-06 10:42 | 26.22750 | 115.37678 | 32039 ft | 450 kts | 231° |
| 2026-05-06 10:42 | 26.18457 | 115.32550 | 32030 ft | 450 kts | 231° |
| 2026-05-06 10:43 | 26.14190 | 115.27457 | 32022 ft | 452 kts | 231° |
| 2026-05-06 10:44 | 26.07761 | 115.19793 | 32016 ft | 452 kts | 231° |
| 2026-05-06 10:44 | 26.03490 | 115.14709 | 32019 ft | 452 kts | 231° |
| 2026-05-06 10:45 | 25.99205 | 115.09612 | 32018 ft | 452 kts | 231° |
| 2026-05-06 10:45 | 25.94920 | 115.04522 | 32026 ft | 451 kts | 231° |
| 2026-05-06 10:46 | 25.90618 | 114.99416 | 32036 ft | 452 kts | 231° |
| 2026-05-06 10:46 | 25.86231 | 114.94382 | 32040 ft | 454 kts | 226° |
| 2026-05-06 10:47 | 25.81190 | 114.90103 | 32050 ft | 461 kts | 217° |
| 2026-05-06 10:47 | 25.75459 | 114.86847 | 32053 ft | 468 kts | 206° |
| 2026-05-06 10:48 | 25.69153 | 114.84730 | 32051 ft | 474 kts | 198° |
| 2026-05-06 10:48 | 25.62737 | 114.83127 | 32041 ft | 475 kts | 197° |
| 2026-05-06 10:49 | 25.56267 | 114.81531 | 32034 ft | 475 kts | 197° |
| 2026-05-06 10:49 | 25.49828 | 114.79932 | 32034 ft | 474 kts | 197° |
| 2026-05-06 10:50 | 25.43387 | 114.78329 | 32035 ft | 475 kts | 197° |
| 2026-05-06 10:50 | 25.36936 | 114.76720 | 32031 ft | 475 kts | 197° |
| 2026-05-06 10:51 | 25.30470 | 114.75111 | 32029 ft | 475 kts | 197° |
| 2026-05-06 10:51 | 25.24045 | 114.73514 | 32031 ft | 475 kts | 197° |
| 2026-05-06 10:52 | 25.17590 | 114.71909 | 32030 ft | 476 kts | 197° |
| 2026-05-06 10:52 | 25.11119 | 114.70303 | 32039 ft | 476 kts | 197° |
| 2026-05-06 10:53 | 25.04633 | 114.68696 | 32050 ft | 476 kts | 197° |
| 2026-05-06 10:53 | 24.98189 | 114.67099 | 32065 ft | 476 kts | 197° |
| 2026-05-06 10:54 | 24.91727 | 114.65502 | 32075 ft | 476 kts | 197° |
| 2026-05-06 10:54 | 24.85237 | 114.63899 | 32075 ft | 476 kts | 197° |
| 2026-05-06 10:55 | 24.78752 | 114.62305 | 32069 ft | 477 kts | 197° |
| 2026-05-06 10:55 | 24.72419 | 114.60328 | 32067 ft | 472 kts | 203° |
| 2026-05-06 10:56 | 24.66336 | 114.57613 | 32066 ft | 469 kts | 210° |
| 2026-05-06 10:56 | 24.60615 | 114.54247 | 32076 ft | 467 kts | 214° |
| 2026-05-06 10:57 | 24.54978 | 114.50671 | 32084 ft | 467 kts | 214° |
| 2026-05-06 10:57 | 24.49337 | 114.47104 | 32091 ft | 468 kts | 214° |
| 2026-05-06 10:58 | 24.43718 | 114.43562 | 32092 ft | 468 kts | 214° |
| 2026-05-06 10:58 | 24.38066 | 114.40009 | 32084 ft | 468 kts | 214° |
| 2026-05-06 10:59 | 24.32400 | 114.36467 | 32084 ft | 468 kts | 214° |
| 2026-05-06 10:59 | 24.26771 | 114.32942 | 32090 ft | 468 kts | 213° |
| 2026-05-06 11:00 | 24.22282 | 114.30128 | 32096 ft | 468 kts | 213° |
| 2026-05-06 11:00 | 24.17225 | 114.26955 | 32106 ft | 469 kts | 214° |
| 2026-05-06 11:01 | 24.11966 | 114.22836 | 32107 ft | 463 kts | 224° |
| 2026-05-06 11:01 | 24.07493 | 114.17868 | 32107 ft | 458 kts | 233° |
| 2026-05-06 11:02 | 24.03879 | 114.12179 | 32109 ft | 455 kts | 243° |
| 2026-05-06 11:02 | 24.00905 | 114.06105 | 32123 ft | 454 kts | 245° |
| 2026-05-06 11:03 | 23.97961 | 113.99972 | 32140 ft | 454 kts | 245° |
| 2026-05-06 11:03 | 23.95024 | 113.93902 | 32078 ft | 455 kts | 245° |
| 2026-05-06 11:03 | 23.93550 | 113.90865 | 31818 ft | 454 kts | 245° |
| 2026-05-06 11:04 | 23.92066 | 113.87811 | 31555 ft | 452 kts | 245° |
| 2026-05-06 11:04 | 23.90588 | 113.84771 | 31099 ft | 451 kts | 245° |
| 2026-05-06 11:04 | 23.89143 | 113.81800 | 30435 ft | 449 kts | 245° |
| 2026-05-06 11:04 | 23.87682 | 113.78797 | 29653 ft | 449 kts | 245° |
| 2026-05-06 11:05 | 23.86206 | 113.75765 | 28841 ft | 450 kts | 245° |
| 2026-05-06 11:05 | 23.84750 | 113.72773 | 27999 ft | 452 kts | 244° |
| 2026-05-06 11:05 | 23.83281 | 113.69753 | 27130 ft | 454 kts | 244° |
| 2026-05-06 11:05 | 23.81775 | 113.66688 | 26198 ft | 457 kts | 243° |
| 2026-05-06 11:06 | 23.79974 | 113.63830 | 25270 ft | 462 kts | 233° |
| 2026-05-06 11:06 | 23.77752 | 113.61314 | 24351 ft | 466 kts | 224° |
| 2026-05-06 11:06 | 23.75173 | 113.59194 | 23397 ft | 470 kts | 216° |
| 2026-05-06 11:06 | 23.72400 | 113.57277 | 22540 ft | 468 kts | 214° |
| 2026-05-06 11:07 | 23.69644 | 113.55421 | 21937 ft | 460 kts | 213° |
| 2026-05-06 11:07 | 23.66940 | 113.53606 | 21318 ft | 454 kts | 213° |
| 2026-05-06 11:07 | 23.64293 | 113.51820 | 20681 ft | 449 kts | 214° |
| 2026-05-06 11:07 | 23.61625 | 113.50106 | 20052 ft | 444 kts | 210° |
| 2026-05-06 11:08 | 23.58813 | 113.48678 | 19429 ft | 440 kts | 204° |
| 2026-05-06 11:08 | 23.55933 | 113.47582 | 18802 ft | 437 kts | 199° |
| 2026-05-06 11:08 | 23.53025 | 113.46739 | 18165 ft | 434 kts | 197° |
| 2026-05-06 11:08 | 23.50089 | 113.45942 | 17515 ft | 430 kts | 196° |
| 2026-05-06 11:09 | 23.47197 | 113.45166 | 16868 ft | 426 kts | 196° |
| 2026-05-06 11:09 | 23.44309 | 113.44391 | 16211 ft | 423 kts | 196° |
| 2026-05-06 11:09 | 23.41484 | 113.43630 | 15545 ft | 421 kts | 196° |
| 2026-05-06 11:09 | 23.38633 | 113.42859 | 14823 ft | 420 kts | 196° |
| 2026-05-06 11:10 | 23.35829 | 113.42100 | 14275 ft | 413 kts | 196° |
| 2026-05-06 11:10 | 23.33082 | 113.41357 | 14004 ft | 399 kts | 196° |
| 2026-05-06 11:10 | 23.30422 | 113.40637 | 13758 ft | 385 kts | 196° |
| 2026-05-06 11:10 | 23.27868 | 113.39947 | 13541 ft | 372 kts | 196° |
| 2026-05-06 11:11 | 23.25390 | 113.39278 | 13350 ft | 359 kts | 196° |
| 2026-05-06 11:11 | 23.23013 | 113.38635 | 13185 ft | 345 kts | 196° |
| 2026-05-06 11:11 | 23.20718 | 113.38015 | 13053 ft | 332 kts | 197° |
| 2026-05-06 11:11 | 23.18529 | 113.37424 | 12932 ft | 319 kts | 197° |
| 2026-05-06 11:12 | 23.16421 | 113.36854 | 12836 ft | 306 kts | 197° |
| 2026-05-06 11:12 | 23.14375 | 113.36301 | 12753 ft | 292 kts | 197° |
| 2026-05-06 11:12 | 23.12445 | 113.35780 | 12676 ft | 279 kts | 197° |
| 2026-05-06 11:12 | 23.10617 | 113.35287 | 12605 ft | 266 kts | 197° |
| 2026-05-06 11:13 | 23.08827 | 113.34801 | 12536 ft | 266 kts | 197° |
| 2026-05-06 11:13 | 23.07013 | 113.34309 | 12215 ft | 267 kts | 197° |
| 2026-05-06 11:13 | 23.05218 | 113.33823 | 11875 ft | 267 kts | 197° |
| 2026-05-06 11:13 | 23.03409 | 113.33334 | 11533 ft | 266 kts | 197° |
| 2026-05-06 11:14 | 23.01618 | 113.32852 | 11195 ft | 264 kts | 197° |
| 2026-05-06 11:14 | 22.99842 | 113.32374 | 10860 ft | 263 kts | 196° |
| 2026-05-06 11:14 | 22.98075 | 113.31898 | 10523 ft | 259 kts | 196° |
| 2026-05-06 11:14 | 22.96346 | 113.31434 | 10185 ft | 249 kts | 197° |
| 2026-05-06 11:15 | 22.94699 | 113.30992 | 9798 ft | 242 kts | 197° |
| 2026-05-06 11:15 | 22.93078 | 113.30545 | 9454 ft | 233 kts | 201° |
| 2026-05-06 11:15 | 22.91748 | 113.29640 | 9082 ft | 225 kts | 234° |
| 2026-05-06 11:15 | 22.91122 | 113.28120 | 8774 ft | 224 kts | 263° |
| 2026-05-06 11:16 | 22.91266 | 113.26482 | 8552 ft | 214 kts | 283° |
| 2026-05-06 11:16 | 22.91648 | 113.24944 | 8248 ft | 209 kts | 283° |
| 2026-05-06 11:16 | 22.92005 | 113.23432 | 7933 ft | 203 kts | 283° |
| 2026-05-06 11:16 | 22.92607 | 113.22081 | 7604 ft | 202 kts | 310° |
| 2026-05-06 11:17 | 22.93831 | 113.21353 | 7345 ft | 207 kts | 343° |
| 2026-05-06 11:17 | 22.95285 | 113.21233 | 7100 ft | 210 kts | 1° |
| 2026-05-06 11:17 | 22.96741 | 113.21471 | 6890 ft | 211 kts | 10° |
| 2026-05-06 11:17 | 22.98183 | 113.21831 | 6681 ft | 211 kts | 12° |
| 2026-05-06 11:18 | 22.99608 | 113.22215 | 6480 ft | 210 kts | 13° |
| 2026-05-06 11:18 | 23.01032 | 113.22605 | 6277 ft | 210 kts | 13° |
| 2026-05-06 11:18 | 23.02453 | 113.22993 | 6098 ft | 209 kts | 13° |
| 2026-05-06 11:18 | 23.03869 | 113.23380 | 5876 ft | 210 kts | 13° |
| 2026-05-06 11:19 | 23.05291 | 113.23766 | 5617 ft | 209 kts | 13° |
| 2026-05-06 11:19 | 23.06687 | 113.24143 | 5363 ft | 208 kts | 13° |
| 2026-05-06 11:19 | 23.08094 | 113.24523 | 5116 ft | 207 kts | 14° |
| 2026-05-06 11:19 | 23.09496 | 113.24901 | 4873 ft | 206 kts | 14° |
| 2026-05-06 11:20 | 23.10892 | 113.25277 | 4635 ft | 205 kts | 14° |
| 2026-05-06 11:20 | 23.12268 | 113.25648 | 4396 ft | 204 kts | 14° |
| 2026-05-06 11:20 | 23.13642 | 113.26018 | 4105 ft | 201 kts | 15° |
| 2026-05-06 11:20 | 23.14992 | 113.26379 | 3850 ft | 201 kts | 15° |
| 2026-05-06 11:21 | 23.16361 | 113.26744 | 3595 ft | 201 kts | 13° |
| 2026-05-06 11:21 | 23.17762 | 113.26788 | 3331 ft | 201 kts | 353° |
| 2026-05-06 11:21 | 23.19152 | 113.26551 | 3080 ft | 201 kts | 354° |
| 2026-05-06 11:21 | 23.20541 | 113.26524 | 2825 ft | 200 kts | 5° |
| 2026-05-06 11:22 | 23.21927 | 113.26737 | 2571 ft | 199 kts | 13° |
| 2026-05-06 11:22 | 23.23272 | 113.27062 | 2317 ft | 198 kts | 15° |
| 2026-05-06 11:22 | 23.24612 | 113.27424 | 2066 ft | 194 kts | 17° |
| 2026-05-06 11:22 | 23.25879 | 113.27773 | 1977 ft | 178 kts | 17° |
| 2026-05-06 11:23 | 23.27019 | 113.28082 | 1920 ft | 163 kts | 17° |
| 2026-05-06 11:23 | 23.28077 | 113.28368 | 1798 ft | 154 kts | 17° |
| 2026-05-06 11:23 | 23.29096 | 113.28644 | 1578 ft | 150 kts | 18° |
| 2026-05-06 11:23 | 23.30115 | 113.28920 | 1381 ft | 149 kts | 17° |
| 2026-05-06 11:24 | 23.31106 | 113.29188 | 1191 ft | 147 kts | 17° |
| 2026-05-06 11:24 | 23.32103 | 113.29457 | 1001 ft | 147 kts | 17° |
| 2026-05-06 11:24 | 23.33101 | 113.29726 | 814 ft | 146 kts | 17° |
| 2026-05-06 11:24 | 23.34083 | 113.29992 | 633 ft | 145 kts | 17° |
| 2026-05-06 11:25 | 23.35055 | 113.30259 | 449 ft | 144 kts | 17° |
| 2026-05-06 11:25 | 23.36032 | 113.30521 | 269 ft | 142 kts | 16° |
| 2026-05-06 11:25 | 23.36998 | 113.30782 | 94 ft | 141 kts | 16° |
| 2026-05-06 11:25 | 23.37913 | 113.31024 | 53 ft | 123 kts | 14° |
| 2026-05-06 11:26 | 23.38604 | 113.31218 | 52 ft | 83 kts | 14° |
| 2026-05-06 11:26 | 23.39146 | 113.31364 | 51 ft | 73 kts | 13° |
| 2026-05-06 11:26 | 23.39583 | 113.31337 | 51 ft | 53 kts | 346° |
| 2026-05-06 11:26 | 23.39887 | 113.31363 | 51 ft | 41 kts | 14° |
| 2026-05-06 11:27 | 23.40152 | 113.31435 | 51 ft | 37 kts | 14° |
| 2026-05-06 11:27 | 23.40398 | 113.31502 | 51 ft | 34 kts | 14° |
| 2026-05-06 11:27 | 23.40604 | 113.31557 | 51 ft | 25 kts | 15° |
| 2026-05-06 11:27 | 23.40770 | 113.31602 | 51 ft | 22 kts | 14° |
| 2026-05-06 11:28 | 23.40923 | 113.31642 | 51 ft | 22 kts | 14° |
| 2026-05-06 11:28 | 23.41069 | 113.31673 | 51 ft | 21 kts | 5° |
| 2026-05-06 11:28 | 23.41215 | 113.31691 | 51 ft | 20 kts | 12° |
| 2026-05-06 11:28 | 23.41353 | 113.31728 | 51 ft | 20 kts | 13° |
| 2026-05-06 11:29 | 23.41489 | 113.31761 | 51 ft | 19 kts | 359° |
| 2026-05-06 11:29 | 23.41603 | 113.31699 | 51 ft | 19 kts | 307° |
| 2026-05-06 11:29 | 23.41647 | 113.31564 | 51 ft | 18 kts | 284° |
| 2026-05-06 11:29 | 23.41655 | 113.31426 | 51 ft | 18 kts | 253° |
| 2026-05-06 11:30 | 23.41571 | 113.31329 | 51 ft | 18 kts | 197° |
| 2026-05-06 11:30 | 23.41409 | 113.31285 | 51 ft | 26 kts | 194° |
| 2026-05-06 11:30 | 23.41237 | 113.31222 | 51 ft | 25 kts | 194° |
| 2026-05-06 11:30 | 23.41071 | 113.31180 | 51 ft | 24 kts | 194° |
| 2026-05-06 11:31 | 23.40910 | 113.31135 | 51 ft | 23 kts | 193° |
| 2026-05-06 11:31 | 23.40757 | 113.31093 | 51 ft | 22 kts | 195° |
| 2026-05-06 11:31 | 23.40627 | 113.31058 | 51 ft | 17 kts | 194° |
| 2026-05-06 11:31 | 23.40525 | 113.31030 | 51 ft | 13 kts | 194° |
| 2026-05-06 11:32 | 23.40444 | 113.30997 | 51 ft | 12 kts | 234° |
| 2026-05-06 11:32 | 23.40444 | 113.30908 | 51 ft | 11 kts | 282° |
| 2026-05-06 11:32 | 23.40464 | 113.30821 | 51 ft | 12 kts | 283° |
| 2026-05-06 11:32 | 23.40485 | 113.30728 | 51 ft | 13 kts | 284° |
| 2026-05-06 11:33 | 23.40507 | 113.30632 | 51 ft | 13 kts | 285° |
| 2026-05-06 11:33 | 23.40523 | 113.30568 | 51 ft | 3 kts | 283° |
| 2026-05-06 11:33 | 23.40528 | 113.30529 | 51 ft | 8 kts | 264° |
| 2026-05-06 11:33 | 23.40485 | 113.30486 | 51 ft | 9 kts | 194° |
| 2026-05-06 11:34 | 23.40440 | 113.30463 | 51 ft | 7 kts | 226° |
| 2026-05-06 11:34 | 23.40404 | 113.30422 | 51 ft | 7 kts | 227° |
| 2026-05-06 11:34 | 23.40363 | 113.30375 | 51 ft | 9 kts | 225° |
| 2026-05-06 11:34 | 23.40330 | 113.30338 | 51 ft | 5 kts | 226° |
| 2026-05-06 11:35 | 23.40296 | 113.30318 | 51 ft | 6 kts | 191° |
| 2026-05-06 11:35 | 23.40250 | 113.30319 | 51 ft | 7 kts | 172° |
| 2026-05-06 11:35 | 23.40206 | 113.30308 | 51 ft | 6 kts | 194° |
| 2026-05-06 11:35 | 23.40159 | 113.30296 | 51 ft | 6 kts | 193° |
| 2026-05-06 11:36 | 23.40133 | 113.30289 | 51 ft | 0 kts | 193° |